sensor_id;sensor_type;location;lat;lon;timestamp;P1;durP1;ratioP1;P2;durP2;ratioP2
32872;SDS011;19224;52.462;16.898;2023-03-16T00:02:21;11.75;;;5.05;;
32872;SDS011;19224;52.462;16.898;2023-03-16T00:04:52;16.93;;;5.90;;
32872;SDS011;19224;52.462;16.898;2023-03-16T00:07:23;13.50;;;5.53;;
32872;SDS011;19224;52.462;16.898;2023-03-16T00:09:53;16.05;;;6.00;;
32872;SDS011;19224;52.462;16.898;2023-03-16T00:12:24;18.00;;;5.87;;
32872;SDS011;19224;52.462;16.898;2023-03-16T00:14:54;14.60;;;6.17;;
32872;SDS011;19224;52.462;16.898;2023-03-16T00:17:25;17.10;;;6.80;;
32872;SDS011;19224;52.462;16.898;2023-03-16T00:19:56;14.93;;;6.35;;
32872;SDS011;19224;52.462;16.898;2023-03-16T00:22:28;11.93;;;5.78;;
32872;SDS011;19224;52.462;16.898;2023-03-16T00:25:00;14.33;;;5.60;;
32872;SDS011;19224;52.462;16.898;2023-03-16T00:27:31;16.47;;;6.37;;
32872;SDS011;19224;52.462;16.898;2023-03-16T00:30:02;15.08;;;6.00;;
32872;SDS011;19224;52.462;16.898;2023-03-16T00:32:33;16.37;;;6.20;;
32872;SDS011;19224;52.462;16.898;2023-03-16T00:35:05;12.47;;;5.57;;
32872;SDS011;19224;52.462;16.898;2023-03-16T00:37:37;15.00;;;6.10;;
32872;SDS011;19224;52.462;16.898;2023-03-16T00:40:09;14.75;;;5.40;;
32872;SDS011;19224;52.462;16.898;2023-03-16T00:42:40;14.60;;;5.57;;
32872;SDS011;19224;52.462;16.898;2023-03-16T00:45:11;13.08;;;5.92;;
32872;SDS011;19224;52.462;16.898;2023-03-16T00:47:41;13.68;;;5.28;;
32872;SDS011;19224;52.462;16.898;2023-03-16T00:50:12;12.23;;;5.55;;
32872;SDS011;19224;52.462;16.898;2023-03-16T00:52:43;13.00;;;4.90;;
32872;SDS011;19224;52.462;16.898;2023-03-16T00:55:13;13.27;;;5.20;;
32872;SDS011;19224;52.462;16.898;2023-03-16T00:57:45;12.95;;;5.15;;
32872;SDS011;19224;52.462;16.898;2023-03-16T01:00:16;14.13;;;4.57;;
32872;SDS011;19224;52.462;16.898;2023-03-16T01:02:48;7.60;;;3.63;;
32872;SDS011;19224;52.462;16.898;2023-03-16T01:05:18;14.67;;;4.43;;
32872;SDS011;19224;52.462;16.898;2023-03-16T01:07:49;10.90;;;4.23;;
32872;SDS011;19224;52.462;16.898;2023-03-16T01:10:20;13.27;;;4.73;;
32872;SDS011;19224;52.462;16.898;2023-03-16T01:12:51;11.63;;;4.53;;
32872;SDS011;19224;52.462;16.898;2023-03-16T01:15:23;11.07;;;4.63;;
32872;SDS011;19224;52.462;16.898;2023-03-16T01:17:54;11.00;;;4.85;;
32872;SDS011;19224;52.462;16.898;2023-03-16T01:20:24;9.40;;;3.85;;
32872;SDS011;19224;52.462;16.898;2023-03-16T01:22:55;9.70;;;4.08;;
32872;SDS011;19224;52.462;16.898;2023-03-16T01:25:26;8.80;;;4.10;;
32872;SDS011;19224;52.462;16.898;2023-03-16T01:27:57;10.43;;;4.27;;
32872;SDS011;19224;52.462;16.898;2023-03-16T01:30:28;12.95;;;4.30;;
32872;SDS011;19224;52.462;16.898;2023-03-16T01:32:58;10.75;;;4.15;;
32872;SDS011;19224;52.462;16.898;2023-03-16T01:35:30;11.70;;;4.70;;
32872;SDS011;19224;52.462;16.898;2023-03-16T01:38:00;10.90;;;4.50;;
32872;SDS011;19224;52.462;16.898;2023-03-16T01:40:31;9.87;;;4.17;;
32872;SDS011;19224;52.462;16.898;2023-03-16T01:43:03;12.73;;;4.22;;
32872;SDS011;19224;52.462;16.898;2023-03-16T01:48:36;9.70;;;4.05;;
32872;SDS011;19224;52.462;16.898;2023-03-16T01:51:15;13.40;;;4.60;;
32872;SDS011;19224;52.462;16.898;2023-03-16T01:54:00;8.73;;;4.00;;
32872;SDS011;19224;52.462;16.898;2023-03-16T01:56:42;9.33;;;4.25;;
32872;SDS011;19224;52.462;16.898;2023-03-16T01:59:15;8.70;;;3.83;;
32872;SDS011;19224;52.462;16.898;2023-03-16T02:01:49;10.57;;;4.43;;
32872;SDS011;19224;52.462;16.898;2023-03-16T02:04:27;8.20;;;3.50;;
32872;SDS011;19224;52.462;16.898;2023-03-16T02:06:58;9.17;;;3.70;;
32872;SDS011;19224;52.462;16.898;2023-03-16T02:09:29;8.47;;;3.53;;
32872;SDS011;19224;52.462;16.898;2023-03-16T02:12:01;10.23;;;3.70;;
32872;SDS011;19224;52.462;16.898;2023-03-16T02:14:32;11.13;;;3.80;;
32872;SDS011;19224;52.462;16.898;2023-03-16T02:17:03;8.53;;;3.83;;
32872;SDS011;19224;52.462;16.898;2023-03-16T02:19:37;7.87;;;3.80;;
32872;SDS011;19224;52.462;16.898;2023-03-16T02:22:36;10.00;;;3.83;;
32872;SDS011;19224;52.462;16.898;2023-03-16T02:25:13;10.60;;;3.72;;
32872;SDS011;19224;52.462;16.898;2023-03-16T02:30:30;10.03;;;3.23;;
32872;SDS011;19224;52.462;16.898;2023-03-16T02:33:01;10.67;;;3.90;;
32872;SDS011;19224;52.462;16.898;2023-03-16T02:35:32;11.35;;;3.92;;
32872;SDS011;19224;52.462;16.898;2023-03-16T02:38:03;7.60;;;3.60;;
32872;SDS011;19224;52.462;16.898;2023-03-16T02:40:34;9.23;;;3.83;;
32872;SDS011;19224;52.462;16.898;2023-03-16T02:43:06;8.43;;;3.60;;
32872;SDS011;19224;52.462;16.898;2023-03-16T02:48:24;8.80;;;3.33;;
32872;SDS011;19224;52.462;16.898;2023-03-16T02:50:53;9.25;;;3.65;;
32872;SDS011;19224;52.462;16.898;2023-03-16T02:53:23;10.63;;;3.87;;
32872;SDS011;19224;52.462;16.898;2023-03-16T02:55:54;9.07;;;3.30;;
32872;SDS011;19224;52.462;16.898;2023-03-16T02:58:24;9.93;;;3.57;;
32872;SDS011;19224;52.462;16.898;2023-03-16T03:00:55;9.63;;;3.50;;
32872;SDS011;19224;52.462;16.898;2023-03-16T03:03:26;7.80;;;3.33;;
32872;SDS011;19224;52.462;16.898;2023-03-16T03:05:57;9.20;;;3.80;;
32872;SDS011;19224;52.462;16.898;2023-03-16T03:08:28;8.33;;;3.27;;
32872;SDS011;19224;52.462;16.898;2023-03-16T03:10:59;7.15;;;3.33;;
32872;SDS011;19224;52.462;16.898;2023-03-16T03:13:30;8.70;;;3.33;;
32872;SDS011;19224;52.462;16.898;2023-03-16T03:16:00;8.10;;;3.43;;
32872;SDS011;19224;52.462;16.898;2023-03-16T03:18:31;8.15;;;3.30;;
32872;SDS011;19224;52.462;16.898;2023-03-16T03:21:02;8.83;;;3.57;;
32872;SDS011;19224;52.462;16.898;2023-03-16T03:23:33;11.63;;;3.63;;
32872;SDS011;19224;52.462;16.898;2023-03-16T03:26:03;11.75;;;3.65;;
32872;SDS011;19224;52.462;16.898;2023-03-16T03:28:35;11.00;;;3.85;;
32872;SDS011;19224;52.462;16.898;2023-03-16T03:31:06;6.33;;;3.53;;
32872;SDS011;19224;52.462;16.898;2023-03-16T03:33:42;11.40;;;3.92;;
32872;SDS011;19224;52.462;16.898;2023-03-16T03:36:13;11.03;;;4.00;;
32872;SDS011;19224;52.462;16.898;2023-03-16T03:38:44;8.53;;;3.77;;
32872;SDS011;19224;52.462;16.898;2023-03-16T03:41:17;13.30;;;4.25;;
32872;SDS011;19224;52.462;16.898;2023-03-16T03:43:49;11.70;;;4.10;;
32872;SDS011;19224;52.462;16.898;2023-03-16T03:46:19;8.70;;;3.90;;
32872;SDS011;19224;52.462;16.898;2023-03-16T03:48:50;14.00;;;3.63;;
32872;SDS011;19224;52.462;16.898;2023-03-16T03:51:20;7.37;;;3.63;;
32872;SDS011;19224;52.462;16.898;2023-03-16T03:53:50;11.30;;;3.53;;
32872;SDS011;19224;52.462;16.898;2023-03-16T03:56:21;10.38;;;3.92;;
32872;SDS011;19224;52.462;16.898;2023-03-16T03:58:52;11.33;;;3.77;;
32872;SDS011;19224;52.462;16.898;2023-03-16T04:01:23;9.97;;;3.30;;
32872;SDS011;19224;52.462;16.898;2023-03-16T04:03:54;10.83;;;3.77;;
32872;SDS011;19224;52.462;16.898;2023-03-16T04:06:24;12.47;;;3.37;;
32872;SDS011;19224;52.462;16.898;2023-03-16T04:08:55;7.23;;;3.43;;
32872;SDS011;19224;52.462;16.898;2023-03-16T04:11:25;6.30;;;3.30;;
32872;SDS011;19224;52.462;16.898;2023-03-16T04:13:55;7.20;;;2.87;;
32872;SDS011;19224;52.462;16.898;2023-03-16T04:16:26;9.65;;;3.45;;
32872;SDS011;19224;52.462;16.898;2023-03-16T04:18:57;7.97;;;3.07;;
32872;SDS011;19224;52.462;16.898;2023-03-16T04:21:28;6.70;;;2.95;;
32872;SDS011;19224;52.462;16.898;2023-03-16T04:23:59;7.05;;;3.10;;
32872;SDS011;19224;52.462;16.898;2023-03-16T04:26:31;10.40;;;3.07;;
32872;SDS011;19224;52.462;16.898;2023-03-16T04:29:02;9.00;;;3.13;;
32872;SDS011;19224;52.462;16.898;2023-03-16T04:31:33;7.12;;;2.98;;
32872;SDS011;19224;52.462;16.898;2023-03-16T04:34:03;9.83;;;3.40;;
32872;SDS011;19224;52.462;16.898;2023-03-16T04:36:34;10.37;;;3.10;;
32872;SDS011;19224;52.462;16.898;2023-03-16T04:39:05;7.17;;;2.80;;
32872;SDS011;19224;52.462;16.898;2023-03-16T04:41:37;9.53;;;3.02;;
32872;SDS011;19224;52.462;16.898;2023-03-16T04:44:07;5.60;;;2.90;;
32872;SDS011;19224;52.462;16.898;2023-03-16T04:46:39;7.72;;;2.60;;
32872;SDS011;19224;52.462;16.898;2023-03-16T04:49:09;8.15;;;3.35;;
32872;SDS011;19224;52.462;16.898;2023-03-16T04:51:39;7.40;;;2.92;;
32872;SDS011;19224;52.462;16.898;2023-03-16T04:54:10;7.87;;;2.95;;
32872;SDS011;19224;52.462;16.898;2023-03-16T04:56:41;10.10;;;3.27;;
32872;SDS011;19224;52.462;16.898;2023-03-16T04:59:11;12.07;;;3.43;;
32872;SDS011;19224;52.462;16.898;2023-03-16T05:01:42;9.17;;;2.83;;
32872;SDS011;19224;52.462;16.898;2023-03-16T05:04:12;8.20;;;2.83;;
32872;SDS011;19224;52.462;16.898;2023-03-16T05:06:43;7.87;;;2.85;;
32872;SDS011;19224;52.462;16.898;2023-03-16T05:09:15;10.60;;;3.03;;
32872;SDS011;19224;52.462;16.898;2023-03-16T05:11:47;9.27;;;2.73;;
32872;SDS011;19224;52.462;16.898;2023-03-16T05:14:17;7.17;;;2.97;;
32872;SDS011;19224;52.462;16.898;2023-03-16T05:16:48;11.07;;;3.50;;
32872;SDS011;19224;52.462;16.898;2023-03-16T05:19:19;8.77;;;3.43;;
32872;SDS011;19224;52.462;16.898;2023-03-16T05:21:49;8.23;;;3.27;;
32872;SDS011;19224;52.462;16.898;2023-03-16T05:24:20;10.63;;;3.00;;
32872;SDS011;19224;52.462;16.898;2023-03-16T05:26:50;6.70;;;3.27;;
32872;SDS011;19224;52.462;16.898;2023-03-16T05:29:21;14.27;;;3.33;;
32872;SDS011;19224;52.462;16.898;2023-03-16T05:31:53;10.60;;;3.23;;
32872;SDS011;19224;52.462;16.898;2023-03-16T05:34:23;11.53;;;3.37;;
32872;SDS011;19224;52.462;16.898;2023-03-16T05:36:55;13.30;;;4.50;;
32872;SDS011;19224;52.462;16.898;2023-03-16T05:39:25;10.43;;;3.77;;
32872;SDS011;19224;52.462;16.898;2023-03-16T05:41:57;10.67;;;4.67;;
32872;SDS011;19224;52.462;16.898;2023-03-16T05:44:28;8.97;;;4.10;;
32872;SDS011;19224;52.462;16.898;2023-03-16T05:46:58;9.65;;;4.22;;
32872;SDS011;19224;52.462;16.898;2023-03-16T05:49:29;7.70;;;3.33;;
32872;SDS011;19224;52.462;16.898;2023-03-16T05:52:00;8.03;;;3.10;;
32872;SDS011;19224;52.462;16.898;2023-03-16T05:54:31;8.30;;;3.50;;
32872;SDS011;19224;52.462;16.898;2023-03-16T05:57:01;6.23;;;3.60;;
32872;SDS011;19224;52.462;16.898;2023-03-16T05:59:33;5.87;;;3.43;;
32872;SDS011;19224;52.462;16.898;2023-03-16T06:02:04;9.30;;;3.70;;
32872;SDS011;19224;52.462;16.898;2023-03-16T06:04:37;13.93;;;4.43;;
32872;SDS011;19224;52.462;16.898;2023-03-16T06:07:08;11.73;;;4.23;;
32872;SDS011;19224;52.462;16.898;2023-03-16T06:09:38;12.50;;;4.73;;
32872;SDS011;19224;52.462;16.898;2023-03-16T06:12:09;10.73;;;5.10;;
32872;SDS011;19224;52.462;16.898;2023-03-16T06:14:40;17.27;;;5.93;;
32872;SDS011;19224;52.462;16.898;2023-03-16T06:17:10;10.97;;;5.33;;
32872;SDS011;19224;52.462;16.898;2023-03-16T06:19:41;10.47;;;5.03;;
32872;SDS011;19224;52.462;16.898;2023-03-16T06:22:11;14.90;;;5.30;;
32872;SDS011;19224;52.462;16.898;2023-03-16T06:24:42;16.53;;;5.77;;
32872;SDS011;19224;52.462;16.898;2023-03-16T06:27:12;12.57;;;4.73;;
32872;SDS011;19224;52.462;16.898;2023-03-16T06:29:43;16.85;;;5.28;;
32872;SDS011;19224;52.462;16.898;2023-03-16T06:32:14;16.00;;;5.07;;
32872;SDS011;19224;52.462;16.898;2023-03-16T06:34:44;11.57;;;4.33;;
32872;SDS011;19224;52.462;16.898;2023-03-16T06:37:15;14.30;;;5.03;;
32872;SDS011;19224;52.462;16.898;2023-03-16T06:39:45;14.85;;;4.50;;
32872;SDS011;19224;52.462;16.898;2023-03-16T06:42:16;10.27;;;4.20;;
32872;SDS011;19224;52.462;16.898;2023-03-16T06:44:47;11.47;;;4.63;;
32872;SDS011;19224;52.462;16.898;2023-03-16T06:47:19;13.65;;;5.28;;
32872;SDS011;19224;52.462;16.898;2023-03-16T06:49:50;16.25;;;5.03;;
32872;SDS011;19224;52.462;16.898;2023-03-16T06:52:21;13.70;;;5.70;;
32872;SDS011;19224;52.462;16.898;2023-03-16T06:54:52;16.00;;;5.95;;
32872;SDS011;19224;52.462;16.898;2023-03-16T06:57:24;14.18;;;5.58;;
32872;SDS011;19224;52.462;16.898;2023-03-16T06:59:55;10.35;;;5.03;;
32872;SDS011;19224;52.462;16.898;2023-03-16T07:02:25;12.70;;;5.35;;
32872;SDS011;19224;52.462;16.898;2023-03-16T07:04:56;9.08;;;4.30;;
32872;SDS011;19224;52.462;16.898;2023-03-16T07:07:26;8.93;;;3.80;;
32872;SDS011;19224;52.462;16.898;2023-03-16T07:09:57;11.43;;;3.67;;
32872;SDS011;19224;52.462;16.898;2023-03-16T07:12:28;8.28;;;3.52;;
32872;SDS011;19224;52.462;16.898;2023-03-16T07:14:58;10.85;;;3.55;;
32872;SDS011;19224;52.462;16.898;2023-03-16T07:17:29;12.80;;;2.90;;
32872;SDS011;19224;52.462;16.898;2023-03-16T07:19:59;16.87;;;3.10;;
32872;SDS011;19224;52.462;16.898;2023-03-16T07:22:32;10.50;;;3.40;;
32872;SDS011;19224;52.462;16.898;2023-03-16T07:25:03;11.73;;;3.75;;
32872;SDS011;19224;52.462;16.898;2023-03-16T07:27:35;9.08;;;3.17;;
32872;SDS011;19224;52.462;16.898;2023-03-16T07:30:08;7.80;;;3.10;;
32872;SDS011;19224;52.462;16.898;2023-03-16T07:32:41;6.87;;;3.15;;
32872;SDS011;19224;52.462;16.898;2023-03-16T07:35:12;7.40;;;2.95;;
32872;SDS011;19224;52.462;16.898;2023-03-16T07:37:44;9.33;;;2.87;;
32872;SDS011;19224;52.462;16.898;2023-03-16T07:40:14;9.33;;;3.08;;
32872;SDS011;19224;52.462;16.898;2023-03-16T07:42:45;12.43;;;3.05;;
32872;SDS011;19224;52.462;16.898;2023-03-16T07:45:15;6.57;;;2.70;;
32872;SDS011;19224;52.462;16.898;2023-03-16T07:47:46;8.85;;;2.80;;
32872;SDS011;19224;52.462;16.898;2023-03-16T07:50:17;9.73;;;2.65;;
32872;SDS011;19224;52.462;16.898;2023-03-16T07:52:48;12.27;;;3.50;;
32872;SDS011;19224;52.462;16.898;2023-03-16T07:55:19;11.88;;;3.25;;
32872;SDS011;19224;52.462;16.898;2023-03-16T07:57:50;20.90;;;3.17;;
32872;SDS011;19224;52.462;16.898;2023-03-16T08:00:20;14.07;;;4.10;;
32872;SDS011;19224;52.462;16.898;2023-03-16T08:02:51;7.97;;;2.83;;
32872;SDS011;19224;52.462;16.898;2023-03-16T08:05:24;10.08;;;3.08;;
32872;SDS011;19224;52.462;16.898;2023-03-16T08:07:54;14.75;;;3.25;;
32872;SDS011;19224;52.462;16.898;2023-03-16T08:10:25;10.70;;;3.05;;
32872;SDS011;19224;52.462;16.898;2023-03-16T08:12:57;11.18;;;3.08;;
32872;SDS011;19224;52.462;16.898;2023-03-16T08:15:28;12.00;;;4.30;;
32872;SDS011;19224;52.462;16.898;2023-03-16T08:18:01;7.70;;;2.67;;
32872;SDS011;19224;52.462;16.898;2023-03-16T08:20:33;7.90;;;2.90;;
32872;SDS011;19224;52.462;16.898;2023-03-16T08:23:04;10.03;;;2.90;;
32872;SDS011;19224;52.462;16.898;2023-03-16T08:25:35;15.15;;;3.70;;
32872;SDS011;19224;52.462;16.898;2023-03-16T08:28:05;14.85;;;5.20;;
32872;SDS011;19224;52.462;16.898;2023-03-16T08:30:35;13.45;;;5.00;;
32872;SDS011;19224;52.462;16.898;2023-03-16T08:33:08;16.40;;;5.58;;
32872;SDS011;19224;52.462;16.898;2023-03-16T08:35:40;20.45;;;6.50;;
32872;SDS011;19224;52.462;16.898;2023-03-16T08:38:11;14.45;;;5.37;;
32872;SDS011;19224;52.462;16.898;2023-03-16T08:40:42;13.20;;;3.45;;
32872;SDS011;19224;52.462;16.898;2023-03-16T08:43:14;19.02;;;4.78;;
32872;SDS011;19224;52.462;16.898;2023-03-16T08:45:46;12.50;;;4.40;;
32872;SDS011;19224;52.462;16.898;2023-03-16T08:48:17;7.90;;;3.33;;
32872;SDS011;19224;52.462;16.898;2023-03-16T08:50:49;8.10;;;2.62;;
32872;SDS011;19224;52.462;16.898;2023-03-16T08:53:20;12.58;;;2.90;;
32872;SDS011;19224;52.462;16.898;2023-03-16T08:55:51;16.05;;;2.85;;
32872;SDS011;19224;52.462;16.898;2023-03-16T08:58:23;6.35;;;2.72;;
32872;SDS011;19224;52.462;16.898;2023-03-16T09:00:54;8.40;;;3.20;;
32872;SDS011;19224;52.462;16.898;2023-03-16T09:03:24;10.28;;;3.20;;
32872;SDS011;19224;52.462;16.898;2023-03-16T09:06:02;13.35;;;3.70;;
32872;SDS011;19224;52.462;16.898;2023-03-16T09:08:36;13.25;;;4.03;;
32872;SDS011;19224;52.462;16.898;2023-03-16T09:11:08;17.25;;;4.55;;
32872;SDS011;19224;52.462;16.898;2023-03-16T09:13:42;10.65;;;4.40;;
32872;SDS011;19224;52.462;16.898;2023-03-16T09:16:14;9.30;;;4.03;;
32872;SDS011;19224;52.462;16.898;2023-03-16T09:18:45;17.23;;;5.33;;
32872;SDS011;19224;52.462;16.898;2023-03-16T09:21:16;11.75;;;4.30;;
32872;SDS011;19224;52.462;16.898;2023-03-16T09:23:46;13.48;;;3.92;;
32872;SDS011;19224;52.462;16.898;2023-03-16T09:26:17;9.75;;;2.87;;
32872;SDS011;19224;52.462;16.898;2023-03-16T09:28:47;14.33;;;3.93;;
32872;SDS011;19224;52.462;16.898;2023-03-16T09:31:18;7.95;;;2.60;;
32872;SDS011;19224;52.462;16.898;2023-03-16T09:33:49;5.80;;;2.45;;
32872;SDS011;19224;52.462;16.898;2023-03-16T09:36:21;9.53;;;2.98;;
32872;SDS011;19224;52.462;16.898;2023-03-16T09:38:52;7.40;;;2.90;;
32872;SDS011;19224;52.462;16.898;2023-03-16T09:41:28;8.73;;;2.75;;
32872;SDS011;19224;52.462;16.898;2023-03-16T09:46:50;11.10;;;3.22;;
32872;SDS011;19224;52.462;16.898;2023-03-16T09:49:24;8.75;;;3.00;;
32872;SDS011;19224;52.462;16.898;2023-03-16T09:58:09;9.03;;;2.77;;
32872;SDS011;19224;52.462;16.898;2023-03-16T10:06:52;8.25;;;2.95;;
32872;SDS011;19224;52.462;16.898;2023-03-16T10:09:47;11.80;;;3.02;;
32872;SDS011;19224;52.462;16.898;2023-03-16T10:12:25;10.90;;;3.40;;
32872;SDS011;19224;52.462;16.898;2023-03-16T10:15:02;18.62;;;3.52;;
32872;SDS011;19224;52.462;16.898;2023-03-16T10:17:42;9.93;;;2.80;;
32872;SDS011;19224;52.462;16.898;2023-03-16T10:20:21;10.65;;;3.00;;
32872;SDS011;19224;52.462;16.898;2023-03-16T10:22:53;6.58;;;2.55;;
32872;SDS011;19224;52.462;16.898;2023-03-16T10:28:17;6.12;;;2.75;;
32872;SDS011;19224;52.462;16.898;2023-03-16T10:30:54;11.33;;;3.20;;
32872;SDS011;19224;52.462;16.898;2023-03-16T10:33:29;7.92;;;2.72;;
32872;SDS011;19224;52.462;16.898;2023-03-16T10:38:53;7.75;;;2.70;;
32872;SDS011;19224;52.462;16.898;2023-03-16T10:41:30;6.55;;;2.52;;
32872;SDS011;19224;52.462;16.898;2023-03-16T10:44:14;11.50;;;2.80;;
32872;SDS011;19224;52.462;16.898;2023-03-16T10:47:03;7.17;;;1.90;;
32872;SDS011;19224;52.462;16.898;2023-03-16T10:49:35;5.35;;;2.12;;
32872;SDS011;19224;52.462;16.898;2023-03-16T10:55:10;9.28;;;2.47;;
32872;SDS011;19224;52.462;16.898;2023-03-16T10:57:53;7.20;;;2.30;;
32872;SDS011;19224;52.462;16.898;2023-03-16T11:00:25;7.65;;;2.50;;
32872;SDS011;19224;52.462;16.898;2023-03-16T11:03:00;9.13;;;2.30;;
32872;SDS011;19224;52.462;16.898;2023-03-16T11:05:43;8.05;;;2.42;;
32872;SDS011;19224;52.462;16.898;2023-03-16T11:08:14;14.80;;;5.08;;
32872;SDS011;19224;52.462;16.898;2023-03-16T11:10:54;29.82;;;7.08;;
32872;SDS011;19224;52.462;16.898;2023-03-16T11:13:33;12.47;;;2.75;;
32872;SDS011;19224;52.462;16.898;2023-03-16T11:19:27;5.42;;;1.70;;
32872;SDS011;19224;52.462;16.898;2023-03-16T11:22:14;6.72;;;1.67;;
32872;SDS011;19224;52.462;16.898;2023-03-16T11:24:49;7.37;;;2.15;;
32872;SDS011;19224;52.462;16.898;2023-03-16T11:27:41;4.40;;;1.35;;
32872;SDS011;19224;52.462;16.898;2023-03-16T11:30:28;4.17;;;1.50;;
32872;SDS011;19224;52.462;16.898;2023-03-16T11:33:07;7.10;;;1.62;;
32872;SDS011;19224;52.462;16.898;2023-03-16T11:38:45;8.78;;;1.82;;
32872;SDS011;19224;52.462;16.898;2023-03-16T11:41:55;4.33;;;1.37;;
32872;SDS011;19224;52.462;16.898;2023-03-16T11:44:43;5.00;;;1.70;;
32872;SDS011;19224;52.462;16.898;2023-03-16T11:47:47;3.85;;;1.75;;
32872;SDS011;19224;52.462;16.898;2023-03-16T11:50:25;6.00;;;1.80;;
32872;SDS011;19224;52.462;16.898;2023-03-16T11:56:12;4.80;;;1.70;;
32872;SDS011;19224;52.462;16.898;2023-03-16T12:07:32;8.28;;;2.52;;
32872;SDS011;19224;52.462;16.898;2023-03-16T12:13:07;7.12;;;2.22;;
32872;SDS011;19224;52.462;16.898;2023-03-16T12:15:52;6.92;;;1.80;;
32872;SDS011;19224;52.462;16.898;2023-03-16T12:19:13;5.78;;;1.50;;
32872;SDS011;19224;52.462;16.898;2023-03-16T12:21:06;3.62;;;1.27;;
32872;SDS011;19224;52.462;16.898;2023-03-16T12:26:45;4.40;;;1.60;;
32872;SDS011;19224;52.462;16.898;2023-03-16T12:29:20;2.95;;;1.40;;
32872;SDS011;19224;52.462;16.898;2023-03-16T12:44:16;4.03;;;1.60;;
32872;SDS011;19224;52.462;16.898;2023-03-16T12:50:05;3.75;;;1.50;;
32872;SDS011;19224;52.462;16.898;2023-03-16T12:52:42;5.58;;;1.87;;
32872;SDS011;19224;52.462;16.898;2023-03-16T12:55:42;2.27;;;1.15;;
32872;SDS011;19224;52.462;16.898;2023-03-16T12:58:00;2.45;;;1.42;;
32872;SDS011;19224;52.462;16.898;2023-03-16T13:00:35;2.50;;;1.32;;
32872;SDS011;19224;52.462;16.898;2023-03-16T13:03:19;4.83;;;1.62;;
32872;SDS011;19224;52.462;16.898;2023-03-16T13:05:50;6.22;;;1.45;;
32872;SDS011;19224;52.462;16.898;2023-03-16T13:08:27;3.40;;;1.30;;
32872;SDS011;19224;52.462;16.898;2023-03-16T13:11:12;5.30;;;1.62;;
32872;SDS011;19224;52.462;16.898;2023-03-16T13:16:39;4.92;;;1.35;;
32872;SDS011;19224;52.462;16.898;2023-03-16T13:19:24;5.05;;;1.57;;
32872;SDS011;19224;52.462;16.898;2023-03-16T13:22:03;3.35;;;1.50;;
32872;SDS011;19224;52.462;16.898;2023-03-16T13:24:49;4.10;;;1.85;;
32872;SDS011;19224;52.462;16.898;2023-03-16T13:27:27;4.80;;;2.30;;
32872;SDS011;19224;52.462;16.898;2023-03-16T13:30:18;6.95;;;2.67;;
32872;SDS011;19224;52.462;16.898;2023-03-16T13:32:54;4.85;;;1.80;;
32872;SDS011;19224;52.462;16.898;2023-03-16T13:35:28;4.60;;;1.67;;
32872;SDS011;19224;52.462;16.898;2023-03-16T13:38:03;4.67;;;1.50;;
32872;SDS011;19224;52.462;16.898;2023-03-16T13:40:34;4.55;;;1.60;;
32872;SDS011;19224;52.462;16.898;2023-03-16T13:43:11;2.77;;;1.35;;
32872;SDS011;19224;52.462;16.898;2023-03-16T13:45:41;4.58;;;1.40;;
32872;SDS011;19224;52.462;16.898;2023-03-16T13:48:13;3.45;;;1.40;;
32872;SDS011;19224;52.462;16.898;2023-03-16T13:50:49;5.28;;;1.72;;
32872;SDS011;19224;52.462;16.898;2023-03-16T13:53:27;5.75;;;1.42;;
32872;SDS011;19224;52.462;16.898;2023-03-16T13:56:00;4.62;;;1.45;;
32872;SDS011;19224;52.462;16.898;2023-03-16T13:58:34;5.37;;;1.30;;
32872;SDS011;19224;52.462;16.898;2023-03-16T14:01:12;5.75;;;1.60;;
32872;SDS011;19224;52.462;16.898;2023-03-16T14:03:46;3.80;;;1.32;;
32872;SDS011;19224;52.462;16.898;2023-03-16T14:06:20;5.15;;;1.87;;
32872;SDS011;19224;52.462;16.898;2023-03-16T14:08:59;4.65;;;1.50;;
32872;SDS011;19224;52.462;16.898;2023-03-16T14:11:35;3.15;;;1.25;;
32872;SDS011;19224;52.462;16.898;2023-03-16T14:14:13;4.97;;;1.50;;
32872;SDS011;19224;52.462;16.898;2023-03-16T14:16:46;8.13;;;2.00;;
32872;SDS011;19224;52.462;16.898;2023-03-16T14:19:20;7.05;;;1.75;;
32872;SDS011;19224;52.462;16.898;2023-03-16T14:21:55;4.15;;;1.50;;
32872;SDS011;19224;52.462;16.898;2023-03-16T14:24:31;4.80;;;1.35;;
32872;SDS011;19224;52.462;16.898;2023-03-16T14:29:55;5.12;;;1.80;;
32872;SDS011;19224;52.462;16.898;2023-03-16T14:32:31;5.12;;;1.80;;
32872;SDS011;19224;52.462;16.898;2023-03-16T14:35:25;4.75;;;2.27;;
32872;SDS011;19224;52.462;16.898;2023-03-16T14:37:42;5.87;;;2.08;;
32872;SDS011;19224;52.462;16.898;2023-03-16T14:40:21;6.72;;;2.20;;
32872;SDS011;19224;52.462;16.898;2023-03-16T14:42:56;4.87;;;1.50;;
32872;SDS011;19224;52.462;16.898;2023-03-16T14:45:32;5.15;;;1.62;;
32872;SDS011;19224;52.462;16.898;2023-03-16T14:48:06;9.75;;;1.90;;
32872;SDS011;19224;52.462;16.898;2023-03-16T14:50:41;7.83;;;1.98;;
32872;SDS011;19224;52.462;16.898;2023-03-16T14:53:12;6.12;;;1.87;;
32872;SDS011;19224;52.462;16.898;2023-03-16T14:55:42;8.20;;;2.12;;
32872;SDS011;19224;52.462;16.898;2023-03-16T14:58:14;3.45;;;1.60;;
32872;SDS011;19224;52.462;16.898;2023-03-16T15:00:45;6.35;;;1.80;;
32872;SDS011;19224;52.462;16.898;2023-03-16T15:03:19;3.30;;;1.37;;
32872;SDS011;19224;52.462;16.898;2023-03-16T15:05:52;10.00;;;2.47;;
32872;SDS011;19224;52.462;16.898;2023-03-16T15:08:24;4.40;;;1.80;;
32872;SDS011;19224;52.462;16.898;2023-03-16T15:10:59;7.60;;;1.42;;
32872;SDS011;19224;52.462;16.898;2023-03-16T15:13:33;5.78;;;1.50;;
32872;SDS011;19224;52.462;16.898;2023-03-16T15:16:09;3.87;;;2.00;;
32872;SDS011;19224;52.462;16.898;2023-03-16T15:18:41;6.47;;;1.67;;
32872;SDS011;19224;52.462;16.898;2023-03-16T15:21:12;8.63;;;2.15;;
32872;SDS011;19224;52.462;16.898;2023-03-16T15:23:47;6.90;;;2.00;;
32872;SDS011;19224;52.462;16.898;2023-03-16T15:26:21;5.58;;;1.72;;
32872;SDS011;19224;52.462;16.898;2023-03-16T15:28:55;7.37;;;1.98;;
32872;SDS011;19224;52.462;16.898;2023-03-16T15:31:25;7.40;;;1.80;;
32872;SDS011;19224;52.462;16.898;2023-03-16T15:33:56;6.12;;;1.62;;
32872;SDS011;19224;52.462;16.898;2023-03-16T15:36:26;2.27;;;1.35;;
32872;SDS011;19224;52.462;16.898;2023-03-16T15:38:56;8.35;;;2.15;;
32872;SDS011;19224;52.462;16.898;2023-03-16T15:41:28;8.00;;;1.50;;
32872;SDS011;19224;52.462;16.898;2023-03-16T15:43:58;6.45;;;2.10;;
32872;SDS011;19224;52.462;16.898;2023-03-16T15:46:30;4.05;;;1.92;;
32872;SDS011;19224;52.462;16.898;2023-03-16T15:49:00;6.25;;;1.80;;
32872;SDS011;19224;52.462;16.898;2023-03-16T15:51:30;4.92;;;1.70;;
32872;SDS011;19224;52.462;16.898;2023-03-16T15:54:01;11.10;;;2.30;;
32872;SDS011;19224;52.462;16.898;2023-03-16T15:56:35;5.65;;;2.15;;
32872;SDS011;19224;52.462;16.898;2023-03-16T15:59:10;6.15;;;1.70;;
32872;SDS011;19224;52.462;16.898;2023-03-16T16:01:45;6.28;;;2.10;;
32872;SDS011;19224;52.462;16.898;2023-03-16T16:04:18;10.32;;;2.45;;
32872;SDS011;19224;52.462;16.898;2023-03-16T16:06:51;5.00;;;1.70;;
32872;SDS011;19224;52.462;16.898;2023-03-16T16:09:23;7.00;;;3.02;;
32872;SDS011;19224;52.462;16.898;2023-03-16T16:11:54;8.58;;;3.45;;
32872;SDS011;19224;52.462;16.898;2023-03-16T16:14:24;6.83;;;1.95;;
32872;SDS011;19224;52.462;16.898;2023-03-16T16:16:55;10.85;;;2.62;;
32872;SDS011;19224;52.462;16.898;2023-03-16T16:19:25;7.95;;;2.02;;
32872;SDS011;19224;52.462;16.898;2023-03-16T16:21:56;5.35;;;1.92;;